Time;durP1;ratioP1;P1;durP2;ratioP2;P2;SDS_P1;SDS_P2;PMS_P1;PMS_P2;Temp;Humidity;BMP_temperature;BMP_pressure;BME280_temperature;BME280_humidity;BME280_pressure;Samples;Min_cycle;Max_cycle;Signal;HPM_P1;HPM_P2
2024/03/27 00:00:11;;;;;;;;;;;;;;;11.68;45.95;98262.94;4944577;27;98281;-68
2024/03/27 00:02:37;;;;;;;;;;;;;;;11.67;45.84;98260.53;4935854;27;98400;-68
2024/03/27 00:05:07;;;;;;;;;;;;;;;11.65;46.03;98266.28;4943744;27;98313;-72
2024/03/27 00:07:33;;;;;;;;;;;;;;;11.64;45.78;98261.22;4962225;27;98093;-72
2024/03/27 00:10:00;;;;;;;;;;;;;;;11.61;45.95;98259.94;4943025;27;98293;-67
2024/03/27 00:12:26;;;;;;;;;;;;;;;11.59;45.88;98258.69;4959242;27;98257;-67
2024/03/27 00:14:53;;;;;;;;;;;;;;;11.58;45.96;98255.19;4940641;28;98186;-72
2024/03/27 00:17:19;;;;;;;;;;;;;;;11.56;45.89;98257.44;4938269;28;100001;-72
2024/03/27 00:19:46;;;;;;;;;;;;;;;11.54;45.99;98251.56;4940903;27;98687;-72
2024/03/27 00:22:12;;;;;;;;;;;;;;;11.52;46.15;98251.13;4945214;27;98440;-68
2024/03/27 00:24:39;;;;;;;;;;;;;;;11.50;45.95;98245.25;4941914;27;99243;-67
2024/03/27 00:27:05;;;;;;;;;;;;;;;11.48;46.07;98245.59;4945421;28;98518;-72
2024/03/27 00:29:32;;;;;;;;;;;;;;;11.47;45.95;98251.28;4945098;27;98105;-72
2024/03/27 00:31:58;;;;;;;;;;;;;;;11.45;45.92;98243.53;4945698;27;99410;-72
2024/03/27 00:34:25;;;;;;;;;;;;;;;11.43;46.10;98234.19;4962177;27;98380;-67
2024/03/27 00:36:51;;;;;;;;;;;;;;;11.42;46.02;98243.41;4951154;28;98039;-67
2024/03/27 00:39:18;;;;;;;;;;;;;;;11.41;45.92;98241.81;4946933;28;98129;-72
2024/03/27 00:41:45;;;;;;;;;;;;;;;11.39;45.78;98235.94;4968845;27;99506;-72
2024/03/27 00:44:11;;;;;;;;;;;;;;;11.38;46.08;98226.28;4933963;27;98031;-72
2024/03/27 00:46:38;;;;;;;;;;;;;;;11.36;45.89;98226.63;4926818;27;97914;-67
2024/03/27 00:49:06;;;;;;;;;;;;;;;11.35;45.93;98224.25;4933835;28;98027;-72
2024/03/27 00:51:33;;;;;;;;;;;;;;;11.34;45.96;98219.97;4946308;27;98391;-67
2024/03/27 00:53:59;;;;;;;;;;;;;;;11.31;45.85;98218.69;4930400;27;98207;-67
2024/03/27 00:56:27;;;;;;;;;;;;;;;11.30;45.93;98211.72;4962882;27;98235;-67
2024/03/27 00:58:53;;;;;;;;;;;;;;;11.28;45.77;98209.38;4957735;27;97943;-72
2024/03/27 01:01:20;;;;;;;;;;;;;;;11.27;46.13;98207.78;4951430;27;98243;-71
2024/03/27 01:03:46;;;;;;;;;;;;;;;11.28;45.56;98208.59;4947324;27;99150;-67
2024/03/27 01:06:13;;;;;;;;;;;;;;;11.25;46.03;98204.63;4947002;27;97923;-72
2024/03/27 01:08:39;;;;;;;;;;;;;;;11.25;46.08;98206.53;4929611;27;98058;-72
2024/03/27 01:11:05;;;;;;;;;;;;;;;11.23;46.01;98201.44;4951605;28;98490;-71
2024/03/27 01:13:31;;;;;;;;;;;;;;;11.23;46.23;98200.66;4927855;27;98323;-72
2024/03/27 01:15:58;;;;;;;;;;;;;;;11.21;45.88;98202.91;4956986;27;98189;-72
2024/03/27 01:18:24;;;;;;;;;;;;;;;11.19;46.19;98203.22;4950016;27;99793;-67
2024/03/27 01:20:51;;;;;;;;;;;;;;;11.19;45.98;98194.34;4945050;27;97997;-72
2024/03/27 01:23:17;;;;;;;;;;;;;;;11.17;46.14;98200.06;4946237;28;99560;-71
2024/03/27 01:25:44;;;;;;;;;;;;;;;11.16;46.18;98197.69;4958198;28;97899;-67
2024/03/27 01:28:10;;;;;;;;;;;;;;;11.16;46.07;98197.69;4946388;28;98743;-72
2024/03/27 01:30:37;;;;;;;;;;;;;;;11.12;46.01;98197.56;4942053;28;98466;-72
2024/03/27 01:33:03;;;;;;;;;;;;;;;11.12;45.93;98204.84;4937779;27;98214;-72
2024/03/27 01:35:30;;;;;;;;;;;;;;;11.10;45.95;98190.91;4924837;28;98058;-72
2024/03/27 01:37:57;;;;;;;;;;;;;;;11.09;46.13;98190.13;4927325;27;99522;-72
2024/03/27 01:40:23;;;;;;;;;;;;;;;11.09;46.03;98189.34;4949804;28;99092;-72
2024/03/27 01:42:59;;;;;;;;;;;;;;;11.07;45.93;98187.72;4954696;28;104760;-67
2024/03/27 01:45:26;;;;;;;;;;;;;;;11.06;45.85;98188.84;4955235;28;98206;-72
2024/03/27 01:47:52;;;;;;;;;;;;;;;11.05;46.13;98187.28;4974058;27;98596;-67
2024/03/27 01:50:22;;;;;;;;;;;;;;;11.04;45.89;98190.28;4941884;28;98211;-67
2024/03/27 01:52:49;;;;;;;;;;;;;;;11.02;46.16;98196.00;4942074;28;98377;-72
2024/03/27 01:55:15;;;;;;;;;;;;;;;11.01;45.84;98182.88;4939531;28;98176;-72
2024/03/27 01:57:42;;;;;;;;;;;;;;;11.01;45.85;98189.06;4939982;28;98022;-72
2024/03/27 02:00:09;;;;;;;;;;;;;;;11.00;46.00;98184.78;4943216;28;98155;-68
2024/03/27 02:02:37;;;;;;;;;;;;;;;11.00;46.21;98192.06;4940165;28;98261;-67
2024/03/27 02:05:05;;;;;;;;;;;;;;;10.99;45.98;98185.09;4944382;27;98097;-72
2024/03/27 02:07:32;;;;;;;;;;;;;;;10.97;46.11;98185.44;4935883;28;98308;-67
2024/03/27 02:09:58;;;;;;;;;;;;;;;10.98;45.80;98178.13;4943026;27;98273;-72
2024/03/27 02:12:25;;;;;;;;;;;;;;;10.97;46.19;98181.94;4943009;28;98173;-67
2024/03/27 02:14:51;;;;;;;;;;;;;;;10.95;45.86;98176.84;4948665;27;98387;-72
2024/03/27 02:17:17;;;;;;;;;;;;;;;10.96;45.87;98172.25;4921492;27;98265;-72
2024/03/27 02:19:44;;;;;;;;;;;;;;;10.96;46.20;98169.56;4948680;28;98054;-67
2024/03/27 02:22:10;;;;;;;;;;;;;;;10.96;46.20;98162.25;4942253;28;98187;-72
2024/03/27 02:24:49;;;;;;;;;;;;;;;10.96;45.78;98164.16;4933621;28;98203;-72
2024/03/27 02:27:16;;;;;;;;;;;;;;;10.96;46.10;98167.66;4939673;27;98111;-67
2024/03/27 02:29:42;;;;;;;;;;;;;;;10.96;46.17;98164.94;4946470;28;98338;-67
2024/03/27 02:32:11;;;;;;;;;;;;;;;10.96;46.20;98158.78;4922758;28;98561;-67
2024/03/27 02:34:37;;;;;;;;;;;;;;;10.96;45.79;98170.34;4960305;28;99495;-72
2024/03/27 02:37:04;;;;;;;;;;;;;;;10.95;46.27;98160.69;4943541;27;98176;-68
2024/03/27 02:39:31;;;;;;;;;;;;;;;10.97;46.05;98168.47;4959212;27;98802;-67
2024/03/27 02:41:57;;;;;;;;;;;;;;;10.99;46.14;98158.13;4962647;28;98131;-72
2024/03/27 02:44:24;;;;;;;;;;;;;;;10.99;45.93;98150.84;4944167;27;98522;-67
2024/03/27 02:46:51;;;;;;;;;;;;;;;11.00;46.00;98154.31;4946728;27;98368;-72
2024/03/27 02:49:17;;;;;;;;;;;;;;;11.01;46.12;98155.91;4958852;27;98232;-72
2024/03/27 02:51:43;;;;;;;;;;;;;;;11.00;46.22;98149.75;4947000;28;98318;-67
2024/03/27 02:54:10;;;;;;;;;;;;;;;11.02;45.94;98152.88;4926742;27;98055;-72
2024/03/27 02:56:36;;;;;;;;;;;;;;;11.02;45.96;98150.19;4945976;27;98024;-67
2024/03/27 02:59:02;;;;;;;;;;;;;;;11.04;46.03;98147.16;4943255;28;99835;-68
2024/03/27 03:01:29;;;;;;;;;;;;;;;11.05;46.00;98146.06;4924818;27;98236;-67
2024/03/27 03:03:56;;;;;;;;;;;;;;;11.05;46.05;98143.38;4944208;28;98249;-67
2024/03/27 03:06:23;;;;;;;;;;;;;;;11.07;46.25;98146.50;4958965;27;98282;-67
2024/03/27 03:08:49;;;;;;;;;;;;;;;11.07;46.10;98135.72;4939701;28;99108;-67
2024/03/27 03:11:16;;;;;;;;;;;;;;;11.07;45.90;98131.13;4943861;27;98068;-72
2024/03/27 03:13:43;;;;;;;;;;;;;;;11.09;46.16;98130.03;4946447;27;98615;-67
2024/03/27 03:16:09;;;;;;;;;;;;;;;11.09;45.93;98128.13;4943916;28;98510;-72
2024/03/27 03:18:35;;;;;;;;;;;;;;;11.09;46.03;98120.03;4928027;27;98206;-70
2024/03/27 03:21:05;;;;;;;;;;;;;;;11.09;46.05;98130.03;4950704;28;100415;-72
2024/03/27 03:23:34;;;;;;;;;;;;;;;11.10;46.27;98126.19;4983383;27;98034;-67
2024/03/27 03:26:01;;;;;;;;;;;;;;;11.10;46.25;98127.00;4950434;28;98050;-67
2024/03/27 03:28:27;;;;;;;;;;;;;;;11.11;46.16;98112.38;4958595;27;99039;-72
2024/03/27 03:30:53;;;;;;;;;;;;;;;11.10;46.14;98118.91;4963744;28;97847;-72
2024/03/27 03:33:20;;;;;;;;;;;;;;;11.11;45.90;98111.59;4923323;27;98412;-72
2024/03/27 03:35:57;;;;;;;;;;;;;;;11.12;46.24;98102.38;4946478;28;98515;-72
2024/03/27 03:38:23;;;;;;;;;;;;;;;11.10;45.96;98094.63;4959410;27;99686;-72
2024/03/27 03:40:55;;;;;;;;;;;;;;;11.10;46.10;98086.56;4961738;28;99640;-67
2024/03/27 03:43:21;;;;;;;;;;;;;;;11.12;46.28;98080.81;4941473;27;98227;-72
2024/03/27 03:45:48;;;;;;;;;;;;;;;11.11;46.15;98088.13;4947061;28;98131;-67
2024/03/27 03:48:14;;;;;;;;;;;;;;;11.11;45.94;98088.13;4945366;27;98291;-67
2024/03/27 03:50:41;;;;;;;;;;;;;;;11.11;45.96;98088.13;4958093;27;98117;-67
2024/03/27 03:53:08;;;;;;;;;;;;;;;11.11;45.87;98088.13;4948274;28;98105;-67
2024/03/27 03:55:35;;;;;;;;;;;;;;;11.11;46.11;98082.72;4947417;27;98898;-73
2024/03/27 03:58:01;;;;;;;;;;;;;;;11.11;46.09;98082.72;4942923;27;98010;-67
2024/03/27 04:00:27;;;;;;;;;;;;;;;11.10;46.08;98085.75;4975970;27;100093;-67
2024/03/27 04:02:54;;;;;;;;;;;;;;;11.11;45.98;98082.72;4955484;27;98073;-72
2024/03/27 04:05:21;;;;;;;;;;;;;;;11.11;46.32;98081.94;4941783;27;98999;-67
2024/03/27 04:07:47;;;;;;;;;;;;;;;11.10;46.15;98070.38;4944517;27;99673;-67
2024/03/27 04:10:14;;;;;;;;;;;;;;;11.10;46.16;98075.75;4942724;27;98039;-72
2024/03/27 04:12:40;;;;;;;;;;;;;;;11.11;46.33;98073.84;4943154;28;98365;-72
2024/03/27 04:15:08;;;;;;;;;;;;;;;11.11;46.06;98068.47;4936443;27;100335;-67
2024/03/27 04:17:35;;;;;;;;;;;;;;;11.11;45.85;98065.75;4944825;27;99820;-67
2024/03/27 04:20:03;;;;;;;;;;;;;;;11.11;45.98;98077.34;4961760;27;98967;-67
2024/03/27 04:22:31;;;;;;;;;;;;;;;11.10;46.07;98072.28;4941542;27;98177;-67
2024/03/27 04:24:57;;;;;;;;;;;;;;;11.11;46.22;98068.47;4946800;27;98490;-72
2024/03/27 04:27:24;;;;;;;;;;;;;;;11.12;46.30;98067.34;4914866;28;100360;-67
2024/03/27 04:29:59;;;;;;;;;;;;;;;11.11;46.11;98057.69;4941179;27;103140;-72
2024/03/27 04:32:25;;;;;;;;;;;;;;;11.11;46.08;98052.28;4945766;27;98220;-67
2024/03/27 04:34:51;;;;;;;;;;;;;;;11.11;45.90;98060.38;4946281;27;98492;-67
2024/03/27 04:37:21;;;;;;;;;;;;;;;11.10;46.30;98048.03;4945765;27;99796;-72
2024/03/27 04:39:47;;;;;;;;;;;;;;;11.10;46.23;98046.09;4963939;27;98347;-72
2024/03/27 04:42:15;;;;;;;;;;;;;;;11.10;46.17;98043.41;4940534;27;98254;-67
2024/03/27 04:44:41;;;;;;;;;;;;;;;11.12;46.02;98037.69;4940933;28;98045;-67
2024/03/27 04:47:08;;;;;;;;;;;;;;;11.11;45.96;98028.03;4940689;28;98116;-67
2024/03/27 04:49:35;;;;;;;;;;;;;;;11.13;46.17;98033.88;4947894;27;97957;-72
2024/03/27 04:52:01;;;;;;;;;;;;;;;11.13;45.94;98033.88;4958749;28;99067;-67
2024/03/27 04:54:27;;;;;;;;;;;;;;;11.13;46.12;98031.97;4960930;27;98404;-67
2024/03/27 04:56:54;;;;;;;;;;;;;;;11.14;46.41;98027.38;4943174;27;98792;-71
2024/03/27 04:59:22;;;;;;;;;;;;;;;11.15;46.14;98032.41;4923812;27;98483;-67
2024/03/27 05:01:48;;;;;;;;;;;;;;;11.15;46.14;98037.81;4907917;28;98709;-67
2024/03/27 05:04:15;;;;;;;;;;;;;;;11.17;46.13;98046.38;4895261;27;98502;-72
2024/03/27 05:06:42;;;;;;;;;;;;;;;11.19;45.96;98032.56;4910226;27;98825;-67
2024/03/27 05:09:11;;;;;;;;;;;;;;;11.20;45.97;98024.16;4951639;27;101897;-72
2024/03/27 05:11:38;;;;;;;;;;;;;;;11.24;46.22;98024.28;4932692;27;98521;-72
2024/03/27 05:14:05;;;;;;;;;;;;;;;11.25;46.13;98012.38;4928668;27;97901;-68
2024/03/27 05:16:31;;;;;;;;;;;;;;;11.27;45.95;97991.25;4965429;27;98246;-72
2024/03/27 05:18:57;;;;;;;;;;;;;;;11.30;46.10;97982.50;4931271;27;98140;-67
2024/03/27 05:21:24;;;;;;;;;;;;;;;11.31;46.02;97965.97;4953632;27;98246;-72
2024/03/27 05:23:51;;;;;;;;;;;;;;;11.35;45.81;97962.63;4926175;27;98569;-72
2024/03/27 05:26:17;;;;;;;;;;;;;;;11.37;46.08;97977.34;4955274;27;100176;-67
2024/03/27 05:28:44;;;;;;;;;;;;;;;11.41;45.86;97991.75;4965511;27;99206;-72
2024/03/27 05:31:10;;;;;;;;;;;;;;;11.44;45.92;97998.41;4947943;27;98201;-72
2024/03/27 05:33:36;;;;;;;;;;;;;;;11.49;45.99;97995.50;4950477;27;98291;-67
2024/03/27 05:36:03;;;;;;;;;;;;;;;11.53;45.91;98002.59;4943184;27;98131;-67
2024/03/27 05:38:30;;;;;;;;;;;;;;;11.60;45.79;98003.97;4945673;27;99116;-72
2024/03/27 05:40:57;;;;;;;;;;;;;;;11.65;45.65;98004.53;4960107;27;98073;-72
2024/03/27 05:43:23;;;;;;;;;;;;;;;11.72;45.98;97988.59;4934720;27;98428;-72
2024/03/27 05:45:52;;;;;;;;;;;;;;;11.78;45.84;97994.53;4946372;27;98237;-72
2024/03/27 05:48:18;;;;;;;;;;;;;;;11.85;45.84;97994.81;4942383;27;98529;-72
2024/03/27 05:50:44;;;;;;;;;;;;;;;11.92;45.72;97997.75;4976315;27;99444;-71
2024/03/27 05:53:10;;;;;;;;;;;;;;;12.02;45.71;98000.03;4947604;27;98416;-72
2024/03/27 05:55:38;;;;;;;;;;;;;;;12.11;45.79;97997.22;4933570;27;105920;-67
2024/03/27 05:58:04;;;;;;;;;;;;;;;12.23;45.59;97986.44;4957094;27;98404;-72
2024/03/27 06:00:30;;;;;;;;;;;;;;;12.39;45.41;97983.84;4063067;28;10000297;-72
2024/03/27 06:02:56;;;;;;;;;;;;;;;12.53;45.53;97986.94;4940760;27;98375;-67
2024/03/27 06:05:23;;;;;;;;;;;;;;;12.64;45.44;97994.59;4961550;27;98218;-67
2024/03/27 06:07:49;;;;;;;;;;;;;;;12.77;45.35;97999.66;4939416;28;101614;-67
2024/03/27 06:10:15;;;;;;;;;;;;;;;12.91;45.14;97993.88;4941810;27;98327;-67
2024/03/27 06:12:42;;;;;;;;;;;;;;;13.05;45.29;97996.22;4922025;27;99873;-72
2024/03/27 06:15:10;;;;;;;;;;;;;;;13.20;45.21;97991.97;4970599;27;98404;-72
2024/03/27 06:17:36;;;;;;;;;;;;;;;13.35;45.04;97998.63;4940701;28;98349;-67
2024/03/27 06:20:03;;;;;;;;;;;;;;;13.49;44.79;97994.38;4938987;27;98292;-67
2024/03/27 06:22:29;;;;;;;;;;;;;;;13.66;45.21;97987.84;4959295;27;101702;-73
2024/03/27 06:24:56;;;;;;;;;;;;;;;13.84;44.85;97987.56;4934052;27;102577;-68
2024/03/27 06:27:23;;;;;;;;;;;;;;;14.00;45.00;97985.63;4927656;27;98344;-68
2024/03/27 06:29:50;;;;;;;;;;;;;;;14.17;44.79;97987.97;4940802;27;98340;-73
2024/03/27 06:32:16;;;;;;;;;;;;;;;14.33;44.81;97985.25;4947403;27;98112;-70
2024/03/27 06:34:42;;;;;;;;;;;;;;;14.49;44.55;97980.63;4945933;27;98332;-67
2024/03/27 06:37:09;;;;;;;;;;;;;;;14.68;44.75;97979.88;4948287;27;107525;-67
2024/03/27 06:39:35;;;;;;;;;;;;;;;14.86;44.50;97976.78;4946612;27;98437;-68
2024/03/27 06:42:03;;;;;;;;;;;;;;;15.02;44.46;97993.00;4942009;27;97986;-68
2024/03/27 06:44:44;;;;;;;;;;;;;;;15.19;44.42;97996.06;4514555;27;10000799;-72
2024/03/27 06:47:11;;;;;;;;;;;;;;;15.32;44.50;97994.00;4949789;27;100167;-73
2024/03/27 06:49:37;;;;;;;;;;;;;;;15.40;44.58;97994.91;4935898;28;98545;-67
2024/03/27 06:52:04;;;;;;;;;;;;;;;15.47;44.63;97995.84;4938135;27;98659;-67
2024/03/27 06:54:30;;;;;;;;;;;;;;;15.57;44.67;97994.50;4945773;27;98325;-73
2024/03/27 06:56:56;;;;;;;;;;;;;;;15.68;44.55;98000.16;4942082;27;98140;-68
2024/03/27 06:59:23;;;;;;;;;;;;;;;15.75;44.53;97994.84;4939388;27;98183;-72
2024/03/27 07:01:50;;;;;;;;;;;;;;;15.86;44.52;97990.38;4954958;28;98326;-72
2024/03/27 07:04:17;;;;;;;;;;;;;;;15.97;44.55;98004.16;4062569;27;10000411;-72
2024/03/27 07:06:44;;;;;;;;;;;;;;;16.10;44.54;98015.63;4933753;28;98397;-73
2024/03/27 07:09:10;;;;;;;;;;;;;;;16.30;44.38;98010.91;4943816;27;101486;-73
2024/03/27 07:11:36;;;;;;;;;;;;;;;16.47;44.14;98004.97;4941857;28;98152;-68
2024/03/27 07:14:03;;;;;;;;;;;;;;;16.67;44.24;98005.66;4940146;27;98034;-68
2024/03/27 07:16:29;;;;;;;;;;;;;;;16.88;44.04;98005.19;4959617;27;98131;-73
2024/03/27 07:18:56;;;;;;;;;;;;;;;17.08;44.17;97997.69;4945170;27;98250;-72
2024/03/27 07:21:23;;;;;;;;;;;;;;;17.27;44.04;97989.38;4946410;27;98402;-68
2024/03/27 07:23:49;;;;;;;;;;;;;;;17.48;43.81;97990.75;4955532;27;98306;-68
2024/03/27 07:26:16;;;;;;;;;;;;;;;17.72;43.90;97986.72;4942661;27;100067;-73
2024/03/27 07:28:43;;;;;;;;;;;;;;;17.87;43.76;97986.50;4950163;27;98441;-73
2024/03/27 07:31:10;;;;;;;;;;;;;;;18.07;43.68;97986.31;4940263;27;98541;-73
2024/03/27 07:33:37;;;;;;;;;;;;;;;18.30;43.56;98002.47;4945464;27;98133;-72
2024/03/27 07:36:04;;;;;;;;;;;;;;;18.43;43.76;98008.41;4917436;27;98324;-72
2024/03/27 07:38:31;;;;;;;;;;;;;;;18.54;43.79;97996.41;4939576;27;98234;-68
2024/03/27 07:40:58;;;;;;;;;;;;;;;18.66;43.61;97998.03;4954953;27;99724;-68
2024/03/27 07:43:25;;;;;;;;;;;;;;;18.82;43.62;98006.78;4935928;28;98345;-68
2024/03/27 07:45:51;;;;;;;;;;;;;;;18.93;43.50;98004.09;4925481;27;98301;-68
2024/03/27 07:48:18;;;;;;;;;;;;;;;19.12;43.35;98001.06;4940288;27;98163;-67
2024/03/27 07:50:44;;;;;;;;;;;;;;;19.41;43.28;98005.84;4923961;27;98428;-73
2024/03/27 07:53:11;;;;;;;;;;;;;;;19.69;43.12;98005.19;4926372;28;102390;-68
2024/03/27 07:55:37;;;;;;;;;;;;;;;19.89;43.08;97997.44;4928487;27;98289;-73
2024/03/27 07:58:05;;;;;;;;;;;;;;;20.22;42.99;98004.47;4957061;27;98888;-68
2024/03/27 08:00:32;;;;;;;;;;;;;;;20.54;42.68;97997.06;4925932;27;98031;-68
2024/03/27 08:02:59;;;;;;;;;;;;;;;20.93;42.46;98001.69;4941087;27;100595;-68
2024/03/27 08:05:26;;;;;;;;;;;;;;;21.30;42.18;97997.66;4944606;27;99063;-73
2024/03/27 08:07:53;;;;;;;;;;;;;;;21.72;42.18;98009.59;4939990;27;98249;-73
2024/03/27 08:10:19;;;;;;;;;;;;;;;22.18;41.79;98011.31;4939075;27;98328;-68
2024/03/27 08:12:46;;;;;;;;;;;;;;;22.61;41.93;98014.47;4944082;27;98510;-68
2024/03/27 08:15:13;;;;;;;;;;;;;;;23.02;41.65;98013.69;4920517;27;98251;-73
2024/03/27 08:17:39;;;;;;;;;;;;;;;23.54;41.27;98016.22;4943065;27;98125;-68
2024/03/27 08:20:06;;;;;;;;;;;;;;;23.92;41.14;98011.38;4928221;28;98124;-69
2024/03/27 08:22:36;;;;;;;;;;;;;;;24.31;41.18;98006.47;4918901;28;98270;-69
2024/03/27 08:25:02;;;;;;;;;;;;;;;24.62;41.16;98004.41;4921210;27;98535;-71
2024/03/27 08:27:29;;;;;;;;;;;;;;;24.83;41.18;98004.00;4940121;27;98217;-72
2024/03/27 08:29:55;;;;;;;;;;;;;;;24.96;41.18;98002.22;4957804;27;98547;-72
2024/03/27 08:32:22;;;;;;;;;;;;;;;25.12;41.31;98009.81;4939732;27;99778;-72
2024/03/27 08:34:48;;;;;;;;;;;;;;;25.61;41.06;98011.97;4942012;27;98033;-71
2024/03/27 08:37:14;;;;;;;;;;;;;;;26.06;40.98;98001.13;4939306;28;98096;-66
2024/03/27 08:39:42;;;;;;;;;;;;;;;26.63;40.58;97999.72;4955505;27;98301;-67
2024/03/27 08:42:08;;;;;;;;;;;;;;;27.23;40.72;97999.31;4934598;28;98668;-70
2024/03/27 08:44:34;;;;;;;;;;;;;;;27.78;40.29;97996.56;4932388;28;99353;-65
2024/03/27 08:47:01;;;;;;;;;;;;;;;28.30;39.88;97998.09;4952814;27;98253;-70
2024/03/27 08:49:27;;;;;;;;;;;;;;;28.58;40.06;97983.31;4972642;27;97923;-70
2024/03/27 08:51:53;;;;;;;;;;;;;;;29.01;39.83;97989.41;4943518;27;99914;-65
2024/03/27 08:54:20;;;;;;;;;;;;;;;29.40;39.75;97979.66;4959634;27;97966;-67
2024/03/27 08:56:46;;;;;;;;;;;;;;;29.62;40.04;97989.94;4931298;28;98390;-67
2024/03/27 08:59:13;;;;;;;;;;;;;;;29.87;39.92;97981.44;4937836;27;98449;-72
2024/03/27 09:01:40;;;;;;;;;;;;;;;30.02;40.06;97982.41;4955648;27;98226;-67
2024/03/27 09:04:06;;;;;;;;;;;;;;;30.13;39.97;97973.63;4948250;27;99068;-72
2024/03/27 09:06:32;;;;;;;;;;;;;;;30.37;39.91;97979.44;4945942;27;98000;-67
2024/03/27 09:08:59;;;;;;;;;;;;;;;30.68;39.77;97978.53;4926961;27;98099;-72
2024/03/27 09:11:25;;;;;;;;;;;;;;;30.96;39.66;97968.97;4929660;27;98643;-72
2024/03/27 09:13:51;;;;;;;;;;;;;;;31.22;39.64;97974.97;4947662;27;98898;-73
2024/03/27 09:16:18;;;;;;;;;;;;;;;31.53;39.50;97982.34;4941350;27;98408;-70
2024/03/27 09:18:44;;;;;;;;;;;;;;;31.78;39.36;97981.94;4946338;27;98541;-65
2024/03/27 09:21:11;;;;;;;;;;;;;;;32.01;39.42;97990.84;4945143;27;98236;-70
2024/03/27 09:23:38;;;;;;;;;;;;;;;32.22;39.65;97991.81;4962516;27;99435;-65
2024/03/27 09:26:05;;;;;;;;;;;;;;;32.34;39.35;97973.31;4947084;27;98225;-70
2024/03/27 09:28:31;;;;;;;;;;;;;;;32.28;39.58;97981.56;4952554;27;98079;-65
2024/03/27 09:31:02;;;;;;;;;;;;;;;32.31;39.95;97968.72;4953115;28;102370;-65
2024/03/27 09:33:29;;;;;;;;;;;;;;;32.44;39.96;97967.25;4949294;27;98348;-65
2024/03/27 09:35:55;;;;;;;;;;;;;;;32.21;40.23;97970.78;4961118;27;99782;-65
2024/03/27 09:38:21;;;;;;;;;;;;;;;31.61;40.40;97966.09;4945141;27;100531;-70
2024/03/27 09:40:57;;;;;;;;;;;;;;;31.03;40.98;97970.69;4945318;27;98547;-65
2024/03/27 09:43:24;;;;;;;;;;;;;;;30.98;40.78;97972.06;4923980;27;97998;-70
2024/03/27 09:45:53;;;;;;;;;;;;;;;31.54;40.01;97970.75;4962938;27;97999;-70
2024/03/27 09:48:19;;;;;;;;;;;;;;;32.11;39.70;97963.72;4941940;27;99051;-65
2024/03/27 09:50:45;;;;;;;;;;;;;;;32.31;39.78;97972.28;4926557;27;98513;-70
2024/03/27 09:53:12;;;;;;;;;;;;;;;32.49;39.19;97958.22;4944168;27;98789;-71
2024/03/27 09:55:39;;;;;;;;;;;;;;;32.47;39.43;97966.31;4942744;28;98050;-70
2024/03/27 09:58:14;;;;;;;;;;;;;;;32.44;39.78;97967.25;4945013;27;98378;-71
2024/03/27 10:00:41;;;;;;;;;;;;;;;32.41;39.51;97973.78;4945153;27;98106;-70
2024/03/27 10:03:07;;;;;;;;;;;;;;;32.53;39.63;97972.00;4944843;27;98158;-65
2024/03/27 10:05:34;;;;;;;;;;;;;;;32.48;39.40;97979.00;4945125;28;98211;-65
2024/03/27 10:08:03;;;;;;;;;;;;;;;32.42;39.40;97966.97;4942666;27;99763;-65
2024/03/27 10:10:29;;;;;;;;;;;;;;;32.08;39.81;97959.09;4927144;27;98462;-65
2024/03/27 10:12:58;;;;;;;;;;;;;;;31.63;40.18;97947.66;4941837;27;98942;-65
2024/03/27 10:15:27;;;;;;;;;;;;;;;32.10;39.97;97951.03;4943166;27;98546;-67
2024/03/27 10:17:56;;;;;;;;;;;;;;;32.90;39.12;97952.19;4941776;27;98413;-70
2024/03/27 10:20:22;;;;;;;;;;;;;;;33.27;38.54;97960.97;4920241;28;105535;-65
2024/03/27 10:22:48;;;;;;;;;;;;;;;33.41;39.04;97957.44;4940580;27;98370;-65
2024/03/27 10:25:15;;;;;;;;;;;;;;;33.41;38.73;97951.84;4922450;27;98180;-70
2024/03/27 10:27:41;;;;;;;;;;;;;;;33.51;39.11;97949.75;4926510;28;99440;-65
2024/03/27 10:30:10;;;;;;;;;;;;;;;33.56;39.12;97942.69;4940009;27;99543;-65
2024/03/27 10:32:36;;;;;;;;;;;;;;;33.69;38.51;97948.75;4942630;28;98579;-65
2024/03/27 10:35:06;;;;;;;;;;;;;;;34.15;38.55;97951.75;4942285;27;97925;-66
2024/03/27 10:37:33;;;;;;;;;;;;;;;34.65;38.07;97940.44;4961351;27;98261;-70
2024/03/27 10:40:03;;;;;;;;;;;;;;;34.58;38.42;97946.44;4954167;27;99408;-66
2024/03/27 10:42:29;;;;;;;;;;;;;;;34.43;38.63;97940.91;4920319;27;97927;-71
2024/03/27 10:44:56;;;;;;;;;;;;;;;34.33;38.32;97947.91;4943045;28;98844;-65
2024/03/27 10:47:23;;;;;;;;;;;;;;;34.16;38.91;97949.72;4953793;27;100971;-66
2024/03/27 10:49:50;;;;;;;;;;;;;;;33.92;38.93;97936.66;4961053;27;98272;-71
2024/03/27 10:52:17;;;;;;;;;;;;;;;33.72;39.30;97931.81;4919568;27;98758;-66
2024/03/27 10:54:44;;;;;;;;;;;;;;;33.43;39.10;97918.63;4956212;27;97947;-71
2024/03/27 10:57:13;;;;;;;;;;;;;;;33.38;39.52;97926.94;4955996;27;98756;-70
2024/03/27 10:59:43;;;;;;;;;;;;;;;33.38;39.44;97924.13;4957453;27;98275;-66
2024/03/27 11:02:11;;;;;;;;;;;;;;;33.34;39.17;97924.31;4939270;27;98963;-66
2024/03/27 11:04:40;;;;;;;;;;;;;;;33.15;39.15;97920.97;4958066;27;98179;-71
2024/03/27 11:07:13;;;;;;;;;;;;;;;33.01;39.70;97921.72;4934281;27;98978;-66
2024/03/27 11:09:47;;;;;;;;;;;;;;;33.19;39.45;97915.19;4946742;27;98805;-67
2024/03/27 11:12:14;;;;;;;;;;;;;;;33.28;39.37;97917.09;4963561;27;98085;-72
2024/03/27 11:14:45;;;;;;;;;;;;;;;33.54;38.92;97904.13;4942287;27;98086;-72
2024/03/27 11:17:11;;;;;;;;;;;;;;;33.77;38.77;97910.81;4912826;28;98627;-71
2024/03/27 11:19:38;;;;;;;;;;;;;;;33.91;38.66;97909.97;4953474;27;98313;-72
2024/03/27 11:22:10;;;;;;;;;;;;;;;34.00;38.37;97914.72;4940111;27;98252;-72
2024/03/27 11:24:36;;;;;;;;;;;;;;;33.98;38.63;97920.00;4917072;27;98618;-72
2024/03/27 11:27:03;;;;;;;;;;;;;;;34.24;38.65;97916.53;4899533;27;99155;-72
2024/03/27 11:29:33;;;;;;;;;;;;;;;34.43;38.51;97926.19;4917974;27;99700;-72
2024/03/27 11:32:05;;;;;;;;;;;;;;;34.35;38.45;97920.25;4924456;27;98129;-67
2024/03/27 11:34:31;;;;;;;;;;;;;;;33.89;39.43;97914.53;4921271;28;98990;-72
2024/03/27 11:36:58;;;;;;;;;;;;;;;33.78;39.22;97917.91;4920686;28;98549;-72
2024/03/27 11:39:25;;;;;;;;;;;;;;;33.73;39.25;97913.03;4922277;28;98363;-69
2024/03/27 11:41:52;;;;;;;;;;;;;;;33.94;39.14;97913.81;4906456;27;99449;-67
2024/03/27 11:44:18;;;;;;;;;;;;;;;33.90;38.92;97905.66;4936658;28;99152;-67
2024/03/27 11:46:45;;;;;;;;;;;;;;;33.89;38.90;97898.53;4933756;28;98278;-72
2024/03/27 11:49:14;;;;;;;;;;;;;;;33.80;39.14;97898.66;4940149;28;99650;-72
2024/03/27 11:51:40;;;;;;;;;;;;;;;33.67;38.96;97887.81;4950597;28;119202;-67
2024/03/27 11:54:07;;;;;;;;;;;;;;;33.98;38.88;97889.28;4919742;28;98122;-67
2024/03/27 11:56:34;;;;;;;;;;;;;;;34.11;38.81;97869.38;4939291;28;98868;-72
2024/03/27 11:59:01;;;;;;;;;;;;;;;34.18;38.96;97871.75;4924118;27;97873;-67
2024/03/27 12:01:27;;;;;;;;;;;;;;;34.23;38.68;97882.22;4926160;28;98250;-67
2024/03/27 12:03:53;;;;;;;;;;;;;;;34.06;39.05;97878.47;4929011;27;97984;-72
2024/03/27 12:06:20;;;;;;;;;;;;;;;33.95;39.28;97882.59;4915717;28;98956;-67
2024/03/27 12:08:50;;;;;;;;;;;;;;;33.87;38.91;97878.69;4932843;28;98259;-72
2024/03/27 12:11:22;;;;;;;;;;;;;;;33.77;38.86;97866.13;4921582;28;98465;-67
2024/03/27 12:13:50;;;;;;;;;;;;;;;33.49;39.13;97864.97;4959883;28;98016;-71
2024/03/27 12:16:16;;;;;;;;;;;;;;;33.13;39.49;97862.09;4937525;28;98379;-67
2024/03/27 12:18:46;;;;;;;;;;;;;;;32.96;39.76;97861.03;4938393;28;98160;-71
2024/03/27 12:21:13;;;;;;;;;;;;;;;32.66;40.12;97855.44;4960965;28;98426;-72
2024/03/27 12:23:40;;;;;;;;;;;;;;;32.26;39.76;97845.53;4926334;28;100048;-67
2024/03/27 12:26:16;;;;;;;;;;;;;;;31.76;40.63;97839.69;4921152;28;98327;-67
2024/03/27 12:28:43;;;;;;;;;;;;;;;31.65;40.64;97847.78;4959992;28;99667;-71
2024/03/27 12:31:10;;;;;;;;;;;;;;;31.65;40.28;97847.78;4938471;28;98366;-71
2024/03/27 12:33:36;;;;;;;;;;;;;;;31.69;39.73;97850.41;4956444;28;98916;-67
2024/03/27 12:36:03;;;;;;;;;;;;;;;31.58;39.90;97841.78;4944172;27;98277;-71
2024/03/27 12:38:29;;;;;;;;;;;;;;;31.44;39.99;97841.25;4942522;28;99925;-71
2024/03/27 12:40:56;;;;;;;;;;;;;;;31.42;40.27;97840.94;4930085;27;99763;-66
2024/03/27 12:43:22;;;;;;;;;;;;;;;31.31;40.22;97828.78;4956528;27;98143;-71